createdAt,value
2019-05-10T00:00:17.152Z,11.30
2019-05-10T00:03:04.237Z,11.30
2019-05-10T00:05:51.893Z,11.30
2019-05-10T00:08:39.377Z,11.20
2019-05-10T00:11:13.411Z,11.30
2019-05-10T00:14:00.264Z,11.20
2019-05-10T00:16:29.674Z,11.20
2019-05-10T00:18:59.008Z,11.20
2019-05-10T00:21:28.328Z,11.20
2019-05-10T00:23:57.653Z,11.20
2019-05-10T00:26:26.994Z,11.20
2019-05-10T00:28:56.385Z,11.20
2019-05-10T00:31:26.776Z,11.10
2019-05-10T00:33:56.091Z,11.10
2019-05-10T00:36:25.423Z,11.10
2019-05-10T00:38:55.706Z,11.20
2019-05-10T00:41:25.041Z,11.10
2019-05-10T00:43:54.355Z,11.10
2019-05-10T00:46:23.657Z,11.10
2019-05-10T00:48:52.977Z,11.20
2019-05-10T00:51:22.310Z,11.10
2019-05-10T00:53:51.632Z,11.20
2019-05-10T00:56:20.974Z,11.20
2019-05-10T00:58:50.281Z,11.10
2019-05-10T01:01:19.614Z,11.10
2019-05-10T01:03:48.996Z,11.10
2019-05-10T01:06:18.343Z,11.10
2019-05-10T01:08:47.739Z,11.10
2019-05-10T01:11:17.167Z,11.10
2019-05-10T01:13:46.547Z,11.10
2019-05-10T01:16:16.143Z,11.10
2019-05-10T01:18:45.473Z,11.10
2019-05-10T01:21:14.784Z,11.10
2019-05-10T01:23:44.109Z,11.10
2019-05-10T01:26:13.440Z,11.10
2019-05-10T01:28:42.775Z,11.10
2019-05-10T01:31:12.191Z,11.10
2019-05-10T01:33:42.496Z,11.00
2019-05-10T01:36:11.816Z,11.00
2019-05-10T01:38:41.122Z,11.10
2019-05-10T01:41:10.447Z,11.10
2019-05-10T01:43:39.753Z,11.10
2019-05-10T01:46:09.076Z,11.10
2019-05-10T01:48:38.388Z,11.10
2019-05-10T01:51:07.765Z,11.10
2019-05-10T01:53:37.118Z,11.10
2019-05-10T01:56:06.535Z,11.10
2019-05-10T01:58:35.861Z,11.10
2019-05-10T02:01:05.188Z,11.10
2019-05-10T02:03:34.692Z,11.10
2019-05-10T02:06:04.042Z,11.10
2019-05-10T02:08:33.365Z,11.10
2019-05-10T02:11:02.696Z,11.10
2019-05-10T02:13:32.012Z,11.10
2019-05-10T02:16:01.336Z,11.10
2019-05-10T02:18:30.662Z,11.10
2019-05-10T02:21:00.012Z,11.10
2019-05-10T02:23:29.395Z,11.10
2019-05-10T02:26:09.100Z,11.10
2019-05-10T02:28:29.739Z,11.10
2019-05-10T02:30:59.069Z,11.10
2019-05-10T02:33:28.419Z,11.10
2019-05-10T02:35:58.664Z,11.10
2019-05-10T02:38:28.014Z,11.10
2019-05-10T02:40:57.422Z,11.10
2019-05-10T02:43:26.734Z,11.10
2019-05-10T02:45:57.084Z,11.10
2019-05-10T02:48:45.754Z,11.10
2019-05-10T02:51:15.143Z,11.10
2019-05-10T02:53:44.473Z,11.00
2019-05-10T02:56:29.555Z,10.90
2019-05-10T02:58:47.681Z,10.90
2019-05-10T03:01:20.077Z,10.80
2019-05-10T03:03:52.808Z,10.80
2019-05-10T03:06:24.698Z,10.80
2019-05-10T03:08:55.064Z,10.80
2019-05-10T03:11:27.467Z,10.80
2019-05-10T03:14:00.851Z,10.80
2019-05-10T03:16:33.305Z,10.80
2019-05-10T03:19:03.391Z,10.90
2019-05-10T03:21:35.842Z,10.80
2019-05-10T03:24:05.169Z,10.90
2019-05-10T03:26:50.170Z,10.90
2019-05-10T03:29:06.023Z,10.90
2019-05-10T03:31:35.342Z,10.80
2019-05-10T03:34:04.734Z,10.80
2019-05-10T03:36:34.399Z,10.80
2019-05-10T03:39:05.347Z,10.80
2019-05-10T03:41:34.835Z,10.80
2019-05-10T03:44:04.216Z,10.70
2019-05-10T03:46:33.553Z,10.70
2019-05-10T03:49:02.881Z,10.70
2019-05-10T03:51:32.184Z,10.60
2019-05-10T03:54:01.501Z,10.50
2019-05-10T03:56:30.809Z,10.40
2019-05-10T03:59:00.299Z,10.40
2019-05-10T04:01:30.556Z,10.30
2019-05-10T04:03:59.895Z,10.20
2019-05-10T04:06:29.215Z,10.20
2019-05-10T04:08:58.556Z,10.20
2019-05-10T04:11:27.886Z,10.20
2019-05-10T04:13:57.214Z,10.20
2019-05-10T04:16:26.575Z,10.10
2019-05-10T04:18:56.802Z,10.10
2019-05-10T04:21:26.168Z,10.10
2019-05-10T04:23:55.517Z,10.00
2019-05-10T04:26:24.944Z,10.10
2019-05-10T04:28:54.270Z,10.20
2019-05-10T04:31:23.599Z,10.30
2019-05-10T04:33:52.944Z,10.40
2019-05-10T04:36:22.273Z,10.50
2019-05-10T04:38:51.634Z,10.60
2019-05-10T04:41:20.965Z,10.70
2019-05-10T04:43:50.305Z,10.70
2019-05-10T04:46:19.714Z,10.70
2019-05-10T04:48:49.049Z,10.70
2019-05-10T04:51:18.363Z,10.70
2019-05-10T04:53:47.925Z,10.70
2019-05-10T04:56:20.055Z,10.80
2019-05-10T04:58:49.439Z,10.80
2019-05-10T05:01:18.758Z,10.70
2019-05-10T05:03:48.086Z,10.70
2019-05-10T05:06:17.456Z,10.70
2019-05-10T05:08:46.793Z,10.70
2019-05-10T05:11:16.101Z,10.60
2019-05-10T05:13:45.449Z,10.70
2019-05-10T05:16:14.768Z,10.60
2019-05-10T05:18:45.150Z,10.60
2019-05-10T05:21:14.581Z,10.60
2019-05-10T05:23:43.900Z,10.50
2019-05-10T05:26:13.241Z,10.50
2019-05-10T05:28:43.639Z,10.50
2019-05-10T05:31:12.970Z,10.40
2019-05-10T05:33:42.293Z,10.20
2019-05-10T05:36:11.650Z,10.20
2019-05-10T05:38:46.918Z,10.10
2019-05-10T05:41:12.064Z,10.00
2019-05-10T05:43:46.312Z,10.00
2019-05-10T05:46:14.504Z,10.00
2019-05-10T05:48:43.451Z,10.00
2019-05-10T05:51:12.804Z,10.00
2019-05-10T05:53:44.663Z,10.00
2019-05-10T05:56:14.658Z,10.00
2019-05-10T05:58:46.761Z,10.00
2019-05-10T06:01:24.586Z,10.10
2019-05-10T06:03:46.288Z,10.10
2019-05-10T06:06:21.226Z,10.00
2019-05-10T06:08:46.650Z,10.00
2019-05-10T06:11:15.992Z,10.00
2019-05-10T06:13:45.322Z,10.00
2019-05-10T06:16:14.920Z,10.00
2019-05-10T06:18:47.402Z,10.00
2019-05-10T06:21:17.999Z,10.00
2019-05-10T06:23:46.410Z,10.00
2019-05-10T06:26:26.632Z,10.00
2019-05-10T06:29:04.523Z,10.00
2019-05-10T06:31:17.806Z,10.00
2019-05-10T06:33:47.122Z,10.00
2019-05-10T06:36:16.467Z,10.00
2019-05-10T06:38:45.788Z,10.00
2019-05-10T06:41:16.891Z,10.00
2019-05-10T06:43:51.260Z,10.00
2019-05-10T06:46:17.608Z,10.10
2019-05-10T06:48:47.006Z,10.10
2019-05-10T06:51:16.425Z,10.00
2019-05-10T06:53:52.084Z,10.00
2019-05-10T06:56:16.850Z,10.00
2019-05-10T06:58:46.165Z,10.10
2019-05-10T07:01:15.526Z,10.10
2019-05-10T07:03:44.846Z,10.10
2019-05-10T07:06:14.165Z,10.10
2019-05-10T07:08:45.780Z,10.10
2019-05-10T07:11:15.486Z,10.10
2019-05-10T07:13:47.236Z,10.10
2019-05-10T07:16:24.214Z,10.10
2019-05-10T07:18:46.838Z,10.10
2019-05-10T07:21:16.237Z,10.10
2019-05-10T07:23:47.631Z,10.20
2019-05-10T07:26:17.604Z,10.30
2019-05-10T07:28:51.651Z,10.20
2019-05-10T07:31:22.878Z,10.20
2019-05-10T07:33:49.841Z,10.30
2019-05-10T07:36:20.933Z,10.40
2019-05-10T07:38:50.252Z,10.30
2019-05-10T07:41:26.393Z,10.30
2019-05-10T07:43:50.614Z,10.40
2019-05-10T07:46:19.948Z,10.30
2019-05-10T07:48:53.445Z,10.30
2019-05-10T07:51:26.346Z,10.20
2019-05-10T07:53:51.413Z,10.20
2019-05-10T07:56:20.753Z,10.20
2019-05-10T07:58:50.081Z,10.20
2019-05-10T08:01:30.845Z,10.20
2019-05-10T08:03:52.539Z,10.30
2019-05-10T08:06:21.508Z,10.30
2019-05-10T08:08:55.480Z,10.30
2019-05-10T08:11:22.785Z,10.40
2019-05-10T08:13:52.102Z,10.40
2019-05-10T08:16:22.956Z,10.50
2019-05-10T08:18:55.581Z,10.60
2019-05-10T08:21:26.271Z,10.60
2019-05-10T08:23:58.954Z,10.70
2019-05-10T08:26:25.656Z,10.80
2019-05-10T08:28:54.963Z,10.80
2019-05-10T08:31:26.435Z,10.90
2019-05-10T08:33:58.712Z,10.90
2019-05-10T08:36:26.405Z,10.90
2019-05-10T08:39:04.983Z,10.90
2019-05-10T08:41:26.816Z,10.90
2019-05-10T08:43:56.132Z,11.00
2019-05-10T08:46:37.382Z,10.90
2019-05-10T08:48:57.465Z,11.00
2019-05-10T08:51:26.780Z,11.00
2019-05-10T08:53:58.207Z,11.00
2019-05-10T08:56:27.123Z,11.00
2019-05-10T08:58:56.510Z,11.00
2019-05-10T09:01:30.073Z,11.10
2019-05-10T09:04:00.824Z,11.10
2019-05-10T09:06:28.183Z,11.00
2019-05-10T09:09:01.741Z,11.00
2019-05-10T09:11:28.520Z,11.10
2019-05-10T09:13:57.931Z,11.10
2019-05-10T09:16:29.053Z,11.20
2019-05-10T09:18:58.240Z,11.20
2019-05-10T09:21:27.545Z,11.50
2019-05-10T09:24:01.485Z,11.70
2019-05-10T09:26:27.965Z,11.60
2019-05-10T09:28:57.850Z,11.60
2019-05-10T09:31:27.270Z,11.70
2019-05-10T09:33:56.864Z,11.70
2019-05-10T09:36:31.195Z,11.90
2019-05-10T09:38:57.936Z,12.00
2019-05-10T09:41:27.764Z,12.00
2019-05-10T09:43:58.333Z,11.90
2019-05-10T09:46:27.637Z,11.80
2019-05-10T09:49:06.009Z,11.60
2019-05-10T09:51:30.197Z,11.60
2019-05-10T09:54:00.386Z,11.60
2019-05-10T09:56:32.869Z,11.50
2019-05-10T09:59:02.926Z,11.40
2019-05-10T10:01:32.225Z,11.40
2019-05-10T10:04:02.279Z,11.40
2019-05-10T10:06:32.713Z,11.50
2019-05-10T10:09:02.036Z,11.50
2019-05-10T10:11:31.921Z,11.60
2019-05-10T10:14:02.197Z,11.60
2019-05-10T10:16:32.721Z,11.70
2019-05-10T10:19:02.068Z,11.90
2019-05-10T10:21:35.296Z,12.00
2019-05-10T10:24:12.403Z,12.30
2019-05-10T10:26:33.501Z,12.30
2019-05-10T10:29:02.894Z,12.40
2019-05-10T10:31:33.557Z,12.40
2019-05-10T10:34:03.398Z,11.90
2019-05-10T10:36:32.777Z,11.60
2019-05-10T10:39:02.160Z,11.50
2019-05-10T10:41:32.111Z,11.40
2019-05-10T10:44:02.628Z,11.40
2019-05-10T10:46:34.517Z,11.40
2019-05-10T10:49:02.956Z,11.40
2019-05-10T10:51:34.472Z,11.40
2019-05-10T10:54:03.276Z,11.60
2019-05-10T10:56:32.593Z,11.70
2019-05-10T10:59:01.939Z,12.00
2019-05-10T11:01:46.267Z,12.30
2019-05-10T11:04:08.211Z,12.40
2019-05-10T11:06:34.663Z,12.50
2019-05-10T11:09:05.581Z,12.40
2019-05-10T11:11:38.738Z,12.50
2019-05-10T11:14:07.446Z,12.70
2019-05-10T11:16:36.989Z,12.90
2019-05-10T11:19:12.466Z,13.30
2019-05-10T11:21:37.307Z,13.80
2019-05-10T11:24:10.558Z,13.80
2019-05-10T11:26:37.615Z,13.70
2019-05-10T11:29:06.935Z,13.80
2019-05-10T11:31:36.236Z,13.90
2019-05-10T11:34:06.208Z,14.00
2019-05-10T11:36:35.767Z,14.10
2019-05-10T11:39:22.318Z,14.30
2019-05-10T11:41:38.704Z,14.40
2019-05-10T11:44:11.274Z,14.50
2019-05-10T11:46:41.477Z,14.70
2019-05-10T11:49:10.613Z,14.90
2019-05-10T11:51:41.321Z,15.00
2019-05-10T11:54:11.254Z,14.70
2019-05-10T11:56:42.444Z,14.60
2019-05-10T11:59:16.290Z,14.50
2019-05-10T12:01:42.774Z,14.50
2019-05-10T12:04:21.825Z,14.40
2019-05-10T12:06:49.867Z,14.40
2019-05-10T12:09:14.135Z,14.30
2019-05-10T12:22:15.810Z,14.10
2019-05-10T12:26:30.551Z,14.50
2019-05-10T12:27:25.309Z,15.20
2019-05-10T12:29:46.513Z,15.50
2019-05-10T12:32:16.741Z,15.50
2019-05-10T12:34:50.957Z,15.00
2019-05-10T12:37:17.055Z,14.80
2019-05-10T12:39:47.340Z,14.70
2019-05-10T12:42:16.666Z,14.70
2019-05-10T12:44:48.052Z,14.90
2019-05-10T12:47:17.016Z,15.20
2019-05-10T12:49:46.335Z,15.50
2019-05-10T12:52:16.236Z,16.10
2019-05-10T12:54:46.604Z,16.80
2019-05-10T12:57:15.922Z,16.60
2019-05-10T12:59:45.257Z,16.30
2019-05-10T13:02:14.585Z,16.20
2019-05-10T13:04:47.010Z,16.00
2019-05-10T13:07:15.544Z,15.40
2019-05-10T13:09:44.981Z,15.70
2019-05-10T13:12:14.424Z,16.30
2019-05-10T13:14:46.603Z,17.00
2019-05-10T13:17:17.037Z,16.70
2019-05-10T13:19:45.937Z,16.10
2019-05-10T13:22:15.248Z,16.10
2019-05-10T13:24:44.560Z,16.80
2019-05-10T13:27:13.878Z,16.90
2019-05-10T13:29:47.132Z,17.50
2019-05-10T13:32:14.883Z,17.40
2019-05-10T13:34:45.201Z,17.30
2019-05-10T13:37:23.342Z,18.10
2019-05-10T13:39:48.295Z,18.60
2019-05-10T13:42:17.604Z,18.70
2019-05-10T13:44:46.912Z,17.80
2019-05-10T13:47:16.228Z,17.30
2019-05-10T13:49:48.675Z,17.20
2019-05-10T13:52:16.559Z,16.70
2019-05-10T13:54:45.885Z,16.60
2019-05-10T13:57:15.200Z,16.90
2019-05-10T13:59:49.016Z,17.10
2019-05-10T14:02:15.515Z,17.20
2019-05-10T14:04:44.845Z,17.00
2019-05-10T14:07:14.169Z,16.60
2019-05-10T14:09:43.487Z,16.70
2019-05-10T14:12:16.116Z,17.00
2019-05-10T14:14:43.821Z,17.80
2019-05-10T14:17:13.144Z,17.50
2019-05-10T14:19:42.461Z,16.70
2019-05-10T14:22:11.801Z,16.30
2019-05-10T14:24:41.113Z,17.20
2019-05-10T14:27:10.522Z,18.00
2019-05-10T14:29:39.850Z,18.40
2019-05-10T14:32:09.179Z,18.10
2019-05-10T14:34:44.247Z,17.40
2019-05-10T14:37:14.382Z,17.00
2019-05-10T14:39:40.621Z,16.80
2019-05-10T14:42:10.038Z,17.10
2019-05-10T14:44:39.358Z,16.90
2019-05-10T14:47:10.984Z,17.40
2019-05-10T14:49:42.153Z,17.70
2019-05-10T14:52:11.727Z,17.00
2019-05-10T14:54:44.004Z,16.50
2019-05-10T14:57:12.068Z,15.90
2019-05-10T14:59:42.455Z,15.70
2019-05-10T15:02:16.873Z,15.60
2019-05-10T15:04:45.280Z,15.70
2019-05-10T15:07:14.734Z,15.80
2019-05-10T15:09:44.902Z,15.80
2019-05-10T15:12:16.458Z,15.60
2019-05-10T15:14:45.305Z,15.40
2019-05-10T15:17:14.641Z,15.30
2019-05-10T15:19:55.939Z,15.30
2019-05-10T15:22:18.431Z,15.40
2019-05-10T15:24:46.163Z,15.40
2019-05-10T15:27:16.165Z,15.50
2019-05-10T15:29:46.529Z,15.70
2019-05-10T15:32:15.876Z,15.80
2019-05-10T15:35:04.518Z,16.00
2019-05-10T15:37:17.772Z,16.00
2019-05-10T15:39:47.363Z,16.20
2019-05-10T15:42:16.680Z,16.30
2019-05-10T15:44:46.005Z,16.50
2019-05-10T15:47:20.373Z,16.80
2019-05-10T15:49:47.316Z,17.60
2019-05-10T15:52:18.005Z,16.90
2019-05-10T15:54:47.474Z,16.40
2019-05-10T15:57:20.359Z,16.50
2019-05-10T15:59:50.786Z,16.50
2019-05-10T16:02:18.849Z,16.30
2019-05-10T16:04:48.167Z,15.90
2019-05-10T16:07:17.480Z,15.60
2019-05-10T16:09:49.884Z,15.40
2019-05-10T16:12:17.821Z,15.10
2019-05-10T16:14:47.123Z,15.20
2019-05-10T16:17:18.566Z,15.80
2019-05-10T16:19:50.402Z,16.60
2019-05-10T16:22:19.413Z,17.20
2019-05-10T16:24:48.730Z,16.80
2019-05-10T16:27:18.073Z,16.30
2019-05-10T16:29:47.368Z,15.80
2019-05-10T16:32:17.656Z,15.60
2019-05-10T16:34:47.041Z,15.40
2019-05-10T16:37:16.441Z,15.30
2019-05-10T16:39:45.776Z,15.10
2019-05-10T16:42:16.142Z,15.00
2019-05-10T16:44:45.468Z,15.10
2019-05-10T16:47:14.775Z,15.20
2019-05-10T16:49:47.593Z,15.40
2019-05-10T16:52:19.549Z,15.70
2019-05-10T16:54:46.126Z,16.20
2019-05-10T16:57:15.424Z,16.00
2019-05-10T16:59:44.735Z,15.60
2019-05-10T17:02:14.059Z,15.40
2019-05-10T17:04:43.375Z,15.20
2019-05-10T17:07:18.481Z,14.90
2019-05-10T17:09:43.698Z,14.70
2019-05-10T17:12:13.040Z,14.60
2019-05-10T17:14:42.361Z,14.50
2019-05-10T17:17:11.705Z,14.50
2019-05-10T17:19:41.069Z,14.40
2019-05-10T17:22:10.385Z,14.30
2019-05-10T17:24:39.707Z,14.20
2019-05-10T17:27:09.143Z,14.10
2019-05-10T17:29:38.523Z,14.20
2019-05-10T17:32:07.829Z,14.40
2019-05-10T17:34:37.162Z,14.60
2019-05-10T17:37:06.481Z,14.70
2019-05-10T17:39:37.801Z,14.70
2019-05-10T17:42:07.113Z,14.60
2019-05-10T17:44:38.385Z,14.50
2019-05-10T17:47:07.707Z,14.40
2019-05-10T17:49:37.928Z,14.40
2019-05-10T17:52:07.245Z,14.20
2019-05-10T17:54:39.072Z,14.10
2019-05-10T17:57:10.740Z,14.10
2019-05-10T17:59:38.603Z,14.00
2019-05-10T18:02:08.025Z,13.90
2019-05-10T18:04:37.512Z,13.80
2019-05-10T18:07:06.828Z,13.80
2019-05-10T18:09:36.156Z,13.70
2019-05-10T18:12:05.470Z,13.60
2019-05-10T18:14:34.788Z,13.60
2019-05-10T18:17:07.124Z,13.60
2019-05-10T18:19:35.107Z,13.60
2019-05-10T18:22:06.480Z,13.50
2019-05-10T18:24:38.609Z,13.50
2019-05-10T18:27:06.506Z,13.40
2019-05-10T18:29:35.928Z,13.30
2019-05-10T18:32:05.236Z,13.30
2019-05-10T18:34:35.468Z,13.30
2019-05-10T18:37:05.016Z,13.30
2019-05-10T18:39:34.361Z,13.20
2019-05-10T18:42:03.651Z,13.20
2019-05-10T18:44:32.963Z,13.10
2019-05-10T18:47:02.268Z,13.00
2019-05-10T18:49:31.609Z,12.90
2019-05-10T18:52:04.531Z,12.80
2019-05-10T18:54:31.960Z,12.80
2019-05-10T18:57:04.484Z,12.70
2019-05-10T18:59:32.294Z,12.60
2019-05-10T19:02:02.567Z,12.60
2019-05-10T19:04:31.886Z,12.50
2019-05-10T19:07:10.132Z,12.50
2019-05-10T19:09:32.224Z,12.50
2019-05-10T19:12:01.545Z,12.50
2019-05-10T19:14:31.260Z,12.50
2019-05-10T19:17:03.845Z,12.40
2019-05-10T19:19:35.323Z,12.40
2019-05-10T19:22:03.013Z,12.40
2019-05-10T19:24:33.836Z,12.40
2019-05-10T19:27:07.449Z,12.30
2019-05-10T19:29:38.764Z,12.30
2019-05-10T19:32:05.181Z,12.20
2019-05-10T19:34:34.498Z,12.20
2019-05-10T19:37:04.852Z,12.20
2019-05-10T19:39:34.156Z,12.10
2019-05-10T19:42:06.019Z,12.10
2019-05-10T19:44:39.744Z,12.10
2019-05-10T19:47:05.645Z,12.10
2019-05-10T19:49:34.963Z,12.00
2019-05-10T19:52:04.384Z,12.00
2019-05-10T19:54:33.697Z,12.00
2019-05-10T19:57:03.046Z,11.90
2019-05-10T19:59:32.374Z,11.90
2019-05-10T20:02:01.812Z,11.90
2019-05-10T20:04:31.287Z,11.90
2019-05-10T20:07:00.630Z,11.90
2019-05-10T20:09:29.932Z,11.80
2019-05-10T20:11:59.255Z,11.80
2019-05-10T20:14:28.571Z,11.80
2019-05-10T20:16:57.880Z,11.80
2019-05-10T20:19:27.193Z,11.80
2019-05-10T20:21:56.517Z,11.80
2019-05-10T20:24:25.838Z,11.80
2019-05-10T20:26:55.187Z,11.80
2019-05-10T20:29:24.504Z,11.80
2019-05-10T20:31:53.833Z,11.80
2019-05-10T20:34:24.359Z,11.80
2019-05-10T20:36:53.878Z,11.80
2019-05-10T20:39:23.198Z,11.80
2019-05-10T20:41:54.449Z,11.70
2019-05-10T20:44:23.755Z,11.70
2019-05-10T20:46:54.051Z,11.60
2019-05-10T20:49:23.379Z,11.60
2019-05-10T20:51:52.717Z,11.60
2019-05-10T20:54:22.038Z,11.60
2019-05-10T20:56:51.352Z,11.50
2019-05-10T20:59:21.547Z,11.50
2019-05-10T21:01:50.871Z,11.50
2019-05-10T21:04:20.190Z,11.40
2019-05-10T21:06:49.503Z,11.40
2019-05-10T21:09:18.827Z,11.40
2019-05-10T21:11:52.271Z,11.30
2019-05-10T21:14:21.577Z,11.30
2019-05-10T21:16:50.908Z,11.20
2019-05-10T21:19:21.187Z,11.20
2019-05-10T21:21:50.534Z,11.10
2019-05-10T21:24:19.846Z,11.20
2019-05-10T21:26:50.141Z,11.10
2019-05-10T21:29:19.454Z,11.10
2019-05-10T21:31:48.788Z,11.20
2019-05-10T21:34:18.102Z,11.20
2019-05-10T21:36:48.365Z,11.20
2019-05-10T21:39:22.852Z,11.20
2019-05-10T21:41:52.172Z,11.20
2019-05-10T21:44:21.508Z,11.10
2019-05-10T21:46:53.837Z,11.10
2019-05-10T21:49:24.096Z,11.00
2019-05-10T21:51:53.439Z,10.90
2019-05-10T21:54:22.755Z,10.90
2019-05-10T21:56:53.096Z,10.90
2019-05-10T21:59:22.410Z,10.90
2019-05-10T22:01:52.713Z,10.80
2019-05-10T22:04:22.036Z,10.80
2019-05-10T22:06:51.376Z,10.80
2019-05-10T22:09:20.756Z,10.80
2019-05-10T22:11:51.057Z,10.70
2019-05-10T22:14:20.394Z,10.70
2019-05-10T22:16:49.737Z,10.60
2019-05-10T22:19:19.063Z,10.60
2019-05-10T22:21:48.373Z,10.60
2019-05-10T22:24:17.689Z,10.50
2019-05-10T22:26:47.992Z,10.40
2019-05-10T22:29:17.309Z,10.40
2019-05-10T22:31:49.644Z,10.40
2019-05-10T22:34:18.966Z,10.40
2019-05-10T22:36:48.294Z,10.40
2019-05-10T22:39:17.687Z,10.30
2019-05-10T22:41:47.070Z,10.30
2019-05-10T22:44:16.372Z,10.30
2019-05-10T22:46:45.716Z,10.40
2019-05-10T22:49:15.937Z,10.40
2019-05-10T22:51:46.271Z,10.40
2019-05-10T22:54:15.575Z,10.40
2019-05-10T22:56:50.351Z,10.40
2019-05-10T22:59:19.704Z,10.30
2019-05-10T23:01:49.026Z,10.20
2019-05-10T23:04:18.368Z,10.10
2019-05-10T23:06:47.749Z,10.10
2019-05-10T23:09:24.445Z,10.00
2019-05-10T23:11:48.083Z,10.00
2019-05-10T23:14:17.411Z,10.00
2019-05-10T23:16:46.729Z,10.00
2019-05-10T23:19:16.086Z,10.00
2019-05-10T23:21:45.478Z,9.90
2019-05-10T23:24:16.731Z,9.90
2019-05-10T23:26:46.127Z,9.80
2019-05-10T23:29:15.435Z,9.70
2019-05-10T23:31:44.747Z,9.70
2019-05-10T23:34:14.083Z,9.70
2019-05-10T23:36:43.401Z,9.60
2019-05-10T23:39:12.729Z,9.60
2019-05-10T23:41:42.078Z,9.60
2019-05-10T23:44:11.392Z,9.50
2019-05-10T23:46:40.700Z,9.50
2019-05-10T23:49:10.020Z,9.50
2019-05-10T23:51:39.324Z,9.40
2019-05-10T23:54:08.653Z,9.40
2019-05-10T23:56:37.970Z,9.40
2019-05-10T23:59:07.310Z,9.30
